createdAt,value
2019-05-26T00:00:12.426Z,21.00
2019-05-26T00:02:41.328Z,22.53
2019-05-26T00:05:10.437Z,24.57
2019-05-26T00:07:39.119Z,21.03
2019-05-26T00:10:09.826Z,20.07
2019-05-26T00:12:39.396Z,23.50
2019-05-26T00:15:09.701Z,19.73
2019-05-26T00:17:39.474Z,20.57
2019-05-26T00:20:09.153Z,22.20
2019-05-26T00:22:38.172Z,21.03
2019-05-26T00:25:08.140Z,24.57
2019-05-26T00:27:42.580Z,24.63
2019-05-26T00:30:12.859Z,21.43
2019-05-26T00:32:42.409Z,21.80
2019-05-26T00:35:14.427Z,19.20
2019-05-26T00:37:49.630Z,16.73
2019-05-26T00:40:14.591Z,16.70
2019-05-26T00:42:43.089Z,18.67
2019-05-26T00:45:12.719Z,19.60
2019-05-26T00:47:42.248Z,15.13
2019-05-26T00:50:11.775Z,20.67
2019-05-26T00:52:40.459Z,18.40
2019-05-26T00:55:10.689Z,15.37
2019-05-26T00:57:40.271Z,18.60
2019-05-26T01:00:11.418Z,18.57
2019-05-26T01:02:42.164Z,15.73
2019-05-26T01:05:14.130Z,19.10
2019-05-26T01:07:43.621Z,17.90
2019-05-26T01:10:13.139Z,17.33
2019-05-26T01:12:42.683Z,14.97
2019-05-26T01:15:11.601Z,18.93
2019-05-26T01:17:40.454Z,23.67
2019-05-26T01:20:09.985Z,15.43
2019-05-26T01:22:38.659Z,11.47
2019-05-26T01:25:08.956Z,16.63
2019-05-26T01:27:38.586Z,19.07
2019-05-26T01:30:07.972Z,22.30
2019-05-26T01:32:37.942Z,15.97
2019-05-26T01:35:07.567Z,18.43
2019-05-26T01:37:38.832Z,16.57
2019-05-26T01:40:09.270Z,17.87
2019-05-26T01:42:38.984Z,20.13
2019-05-26T01:45:08.002Z,17.70
2019-05-26T01:47:38.590Z,22.50
2019-05-26T01:50:08.123Z,24.80
2019-05-26T01:52:36.765Z,19.23
2019-05-26T01:55:08.753Z,22.73
2019-05-26T01:57:37.603Z,20.23
2019-05-26T02:00:07.052Z,23.60
2019-05-26T02:02:35.711Z,22.97
2019-05-26T02:05:05.427Z,24.00
2019-05-26T02:07:34.197Z,27.10
2019-05-26T02:10:04.503Z,28.60
2019-05-26T02:12:33.283Z,21.03
2019-05-26T02:15:02.329Z,22.83
2019-05-26T02:17:30.894Z,18.47
2019-05-26T02:19:59.563Z,27.47
2019-05-26T02:22:29.204Z,22.13
2019-05-26T02:24:57.889Z,22.67
2019-05-26T02:27:27.427Z,27.50
2019-05-26T02:29:56.085Z,23.60
2019-05-26T02:32:25.041Z,22.90
2019-05-26T02:34:54.870Z,19.47
2019-05-26T02:37:24.662Z,19.93
2019-05-26T02:39:53.211Z,24.13
2019-05-26T02:42:22.009Z,23.77
2019-05-26T02:44:50.825Z,19.87
2019-05-26T02:47:19.349Z,21.30
2019-05-26T02:49:48.138Z,24.27
2019-05-26T02:52:16.669Z,23.50
2019-05-26T02:54:45.427Z,25.00
2019-05-26T02:57:14.965Z,20.03
2019-05-26T02:59:43.994Z,25.43
2019-05-26T03:02:12.756Z,22.17
2019-05-26T03:04:41.758Z,28.83
2019-05-26T03:07:12.533Z,24.43
2019-05-26T03:09:44.372Z,25.93
2019-05-26T03:12:13.754Z,26.07
2019-05-26T03:14:44.286Z,24.77
2019-05-26T03:17:13.010Z,28.27
2019-05-26T03:19:44.363Z,23.43
2019-05-26T03:22:15.984Z,21.97
2019-05-26T03:24:48.256Z,25.07
2019-05-26T03:27:16.748Z,22.07
2019-05-26T03:29:45.296Z,26.53
2019-05-26T03:32:13.981Z,24.07
2019-05-26T03:34:44.048Z,27.77
2019-05-26T03:37:12.721Z,20.90
2019-05-26T03:39:45.406Z,19.63
2019-05-26T03:42:11.810Z,26.03
2019-05-26T03:44:40.431Z,21.53
2019-05-26T03:47:16.767Z,20.93
2019-05-26T03:49:44.272Z,22.37
2019-05-26T03:52:13.435Z,22.83
2019-05-26T03:54:42.595Z,29.37
2019-05-26T03:57:11.495Z,24.83
2019-05-26T03:59:40.043Z,22.07
2019-05-26T04:02:10.014Z,21.67
2019-05-26T04:04:39.749Z,25.33
2019-05-26T04:07:08.298Z,31.83
2019-05-26T04:09:36.814Z,22.80
2019-05-26T04:12:08.724Z,26.17
2019-05-26T04:14:39.908Z,23.60
2019-05-26T04:17:09.398Z,20.67
2019-05-26T04:19:38.013Z,23.70
2019-05-26T04:22:06.785Z,24.30
2019-05-26T04:24:36.697Z,25.50
2019-05-26T04:27:05.245Z,24.83
2019-05-26T04:29:33.995Z,22.10
2019-05-26T04:32:03.555Z,26.13
2019-05-26T04:34:32.093Z,22.80
2019-05-26T04:37:00.719Z,22.73
2019-05-26T04:39:29.310Z,23.67
2019-05-26T04:41:57.864Z,20.93
2019-05-26T04:44:26.513Z,21.40
2019-05-26T04:46:55.245Z,33.50
2019-05-26T04:49:23.896Z,22.93
2019-05-26T04:51:53.543Z,18.33
2019-05-26T04:54:23.380Z,21.33
2019-05-26T04:56:51.905Z,20.43
2019-05-26T04:59:20.679Z,22.10
2019-05-26T05:01:49.389Z,18.73
2019-05-26T05:04:18.059Z,21.17
2019-05-26T05:06:46.600Z,18.93
2019-05-26T05:09:15.614Z,24.10
2019-05-26T05:11:44.803Z,16.40
2019-05-26T05:14:13.271Z,19.50
2019-05-26T05:16:41.942Z,21.30
2019-05-26T05:19:10.806Z,21.00
2019-05-26T05:21:39.281Z,16.33
2019-05-26T05:24:08.002Z,16.67
2019-05-26T05:26:36.557Z,20.80
2019-05-26T05:29:05.461Z,19.20
2019-05-26T05:31:34.040Z,16.17
2019-05-26T05:34:03.171Z,21.00
2019-05-26T05:36:35.203Z,14.70
2019-05-26T05:39:07.526Z,21.20
2019-05-26T05:41:36.197Z,16.70
2019-05-26T05:44:06.117Z,16.43
2019-05-26T05:46:37.651Z,16.10
2019-05-26T05:49:06.124Z,18.53
2019-05-26T05:51:34.598Z,25.13
2019-05-26T05:54:03.214Z,18.63
2019-05-26T05:56:34.637Z,16.97
2019-05-26T05:59:03.436Z,17.13
2019-05-26T06:01:32.220Z,15.00
2019-05-26T06:04:02.362Z,18.87
2019-05-26T06:06:31.969Z,15.07
2019-05-26T06:09:00.862Z,13.43
2019-05-26T06:11:30.612Z,15.13
2019-05-26T06:13:59.278Z,19.07
2019-05-26T06:16:28.299Z,16.97
2019-05-26T06:18:57.064Z,20.87
2019-05-26T06:21:26.015Z,13.97
2019-05-26T06:23:54.538Z,17.53
2019-05-26T06:26:24.412Z,16.40
2019-05-26T06:28:53.387Z,14.93
2019-05-26T06:31:22.177Z,17.73
2019-05-26T06:33:51.241Z,15.83
2019-05-26T06:36:20.067Z,19.93
2019-05-26T06:38:48.615Z,18.50
2019-05-26T06:41:32.410Z,13.37
2019-05-26T06:43:47.706Z,17.83
2019-05-26T06:46:16.486Z,13.27
2019-05-26T06:48:45.008Z,17.63
2019-05-26T06:51:13.681Z,19.27
2019-05-26T06:53:42.277Z,20.23
2019-05-26T06:56:11.079Z,16.13
2019-05-26T06:58:42.611Z,16.37
2019-05-26T07:01:11.478Z,15.43
2019-05-26T07:03:39.964Z,13.57
2019-05-26T07:06:08.838Z,15.40
2019-05-26T07:08:38.631Z,16.30
2019-05-26T07:11:08.104Z,16.20
2019-05-26T07:13:40.544Z,10.93
2019-05-26T07:16:09.609Z,14.30
2019-05-26T07:18:40.027Z,11.70
2019-05-26T07:21:08.515Z,10.27
2019-05-26T07:23:37.727Z,7.23
2019-05-26T07:26:06.797Z,9.53
2019-05-26T07:28:35.471Z,11.27
2019-05-26T07:31:05.955Z,9.33
2019-05-26T07:33:34.503Z,11.60
2019-05-26T07:36:06.035Z,12.70
2019-05-26T07:38:35.719Z,8.90
2019-05-26T07:41:04.259Z,10.77
2019-05-26T07:43:34.917Z,10.53
2019-05-26T07:46:03.474Z,8.93
2019-05-26T07:48:35.855Z,5.87
2019-05-26T07:51:03.062Z,7.07
2019-05-26T07:53:31.558Z,7.07
2019-05-26T07:56:01.747Z,9.57
2019-05-26T07:58:31.599Z,9.73
2019-05-26T08:01:00.451Z,7.93
2019-05-26T08:03:30.119Z,8.27
2019-05-26T08:05:58.843Z,7.50
2019-05-26T08:08:27.432Z,7.33
2019-05-26T08:10:56.218Z,6.20
2019-05-26T08:13:24.900Z,7.90
2019-05-26T08:15:56.910Z,7.77
2019-05-26T08:18:26.372Z,9.23
2019-05-26T08:20:56.757Z,8.97
2019-05-26T08:23:25.371Z,6.03
2019-05-26T08:25:59.716Z,8.80
2019-05-26T08:28:28.537Z,7.00
2019-05-26T08:30:58.443Z,7.57
2019-05-26T08:33:26.918Z,7.03
2019-05-26T08:35:57.528Z,14.70
2019-05-26T08:38:26.095Z,10.93
2019-05-26T08:40:55.679Z,7.80
2019-05-26T08:43:24.365Z,5.60
2019-05-26T08:45:53.269Z,9.47
2019-05-26T08:48:22.221Z,7.77
2019-05-26T08:50:50.735Z,8.50
2019-05-26T08:53:20.278Z,6.93
2019-05-26T08:55:50.990Z,6.83
2019-05-26T08:58:19.733Z,13.20
2019-05-26T09:00:48.374Z,8.83
2019-05-26T09:03:17.885Z,11.00
2019-05-26T09:05:46.618Z,11.33
2019-05-26T09:08:17.369Z,7.00
2019-05-26T09:10:45.834Z,9.30
2019-05-26T09:13:14.724Z,7.00
2019-05-26T09:15:43.688Z,10.67
2019-05-26T09:18:13.304Z,8.10
2019-05-26T09:20:41.906Z,8.03
2019-05-26T09:23:10.432Z,14.13
2019-05-26T09:25:41.398Z,10.60
2019-05-26T09:28:10.509Z,8.07
2019-05-26T09:30:43.106Z,8.40
2019-05-26T09:33:11.952Z,7.57
2019-05-26T09:35:40.751Z,6.53
2019-05-26T09:38:09.221Z,8.90
2019-05-26T09:40:37.693Z,9.53
2019-05-26T09:43:15.699Z,6.33
2019-05-26T09:45:36.726Z,9.17
2019-05-26T09:48:05.355Z,11.07
2019-05-26T09:50:34.034Z,5.53
2019-05-26T09:53:02.576Z,6.63
2019-05-26T09:55:31.053Z,11.00
2019-05-26T09:57:59.646Z,8.97
2019-05-26T10:00:30.455Z,8.40
2019-05-26T10:02:59.059Z,5.33
2019-05-26T10:05:27.833Z,9.10
2019-05-26T10:07:58.967Z,8.47
2019-05-26T10:10:27.566Z,9.27
2019-05-26T10:12:56.087Z,5.73
2019-05-26T10:15:24.616Z,6.20
2019-05-26T10:17:53.356Z,8.57
2019-05-26T10:20:22.024Z,8.77
2019-05-26T10:22:50.592Z,7.97
2019-05-26T10:25:20.200Z,6.30
2019-05-26T10:27:49.250Z,7.83
2019-05-26T10:30:19.919Z,8.77
2019-05-26T10:32:50.305Z,6.33
2019-05-26T10:35:19.055Z,9.60
2019-05-26T10:37:48.948Z,8.90
2019-05-26T10:40:18.402Z,12.73
2019-05-26T10:42:47.982Z,14.43
2019-05-26T10:45:17.799Z,10.20
2019-05-26T10:47:46.334Z,7.77
2019-05-26T10:50:16.026Z,6.93
2019-05-26T10:52:44.639Z,6.07
2019-05-26T10:55:13.166Z,9.77
2019-05-26T10:57:41.698Z,9.30
2019-05-26T11:00:11.572Z,9.17
2019-05-26T11:02:45.933Z,7.80
2019-05-26T11:05:14.994Z,9.63
2019-05-26T11:07:43.458Z,9.80
2019-05-26T11:10:12.902Z,10.23
2019-05-26T11:12:41.611Z,10.63
2019-05-26T11:15:12.242Z,11.57
2019-05-26T11:17:40.975Z,8.90
2019-05-26T11:20:11.822Z,10.17
2019-05-26T11:22:40.426Z,9.80
2019-05-26T11:25:09.897Z,10.23
2019-05-26T11:27:38.423Z,10.47
2019-05-26T11:30:12.863Z,10.50
2019-05-26T11:32:41.442Z,9.83
2019-05-26T11:35:11.135Z,13.73
2019-05-26T11:37:41.900Z,12.07
2019-05-26T11:40:11.437Z,12.10
2019-05-26T11:42:40.140Z,11.80
2019-05-26T11:45:10.830Z,10.07
2019-05-26T11:47:39.574Z,10.87
2019-05-26T11:50:09.536Z,9.33
2019-05-26T11:52:38.493Z,10.83
2019-05-26T11:55:08.230Z,8.43
2019-05-26T11:57:37.560Z,8.33
2019-05-26T12:00:13.095Z,12.37
2019-05-26T12:02:44.702Z,7.23
2019-05-26T12:05:17.494Z,9.83
2019-05-26T12:07:44.609Z,12.70
2019-05-26T12:10:14.529Z,9.63
2019-05-26T12:12:43.935Z,10.77
2019-05-26T12:15:15.160Z,10.23
2019-05-26T12:17:43.976Z,8.07
2019-05-26T12:20:14.966Z,8.20
2019-05-26T12:22:44.079Z,8.23
2019-05-26T12:25:13.988Z,7.07
2019-05-26T12:27:42.592Z,13.93
2019-05-26T12:30:12.141Z,7.93
2019-05-26T12:32:40.960Z,9.80
2019-05-26T12:35:09.963Z,17.23
2019-05-26T12:37:39.502Z,9.97
2019-05-26T12:40:09.416Z,9.03
2019-05-26T12:42:38.040Z,10.13
2019-05-26T12:45:08.512Z,11.07
2019-05-26T12:47:37.443Z,11.83
2019-05-26T12:50:07.414Z,10.70
2019-05-26T12:52:36.581Z,9.17
2019-05-26T12:55:09.463Z,10.17
2019-05-26T12:57:38.380Z,10.27
2019-05-26T13:00:11.368Z,9.90
2019-05-26T13:02:40.036Z,11.00
2019-05-26T13:05:10.080Z,10.97
2019-05-26T13:07:39.311Z,9.57
2019-05-26T13:10:09.581Z,7.83
2019-05-26T13:12:38.336Z,8.83
2019-05-26T13:15:11.931Z,8.10
2019-05-26T13:17:40.580Z,9.77
2019-05-26T13:20:10.864Z,13.43
2019-05-26T13:22:40.517Z,10.17
2019-05-26T13:25:13.951Z,9.07
2019-05-26T13:27:42.748Z,7.67
2019-05-26T13:30:15.245Z,8.63
2019-05-26T13:32:43.767Z,5.77
2019-05-26T13:35:15.221Z,10.53
2019-05-26T13:37:44.021Z,6.20
2019-05-26T13:40:13.469Z,7.93
2019-05-26T13:42:42.257Z,10.13
2019-05-26T13:45:22.301Z,8.33
2019-05-26T13:47:42.885Z,7.90
2019-05-26T13:50:12.363Z,7.87
2019-05-26T13:52:41.083Z,6.63
2019-05-26T13:55:10.120Z,7.47
2019-05-26T13:57:38.922Z,14.30
2019-05-26T14:00:10.082Z,5.97
2019-05-26T14:02:38.758Z,6.73
2019-05-26T14:05:14.352Z,5.03
2019-05-26T14:07:46.505Z,6.73
2019-05-26T14:10:21.991Z,11.53
2019-05-26T14:12:50.576Z,7.47
2019-05-26T14:15:19.377Z,7.97
2019-05-26T14:17:49.294Z,8.17
2019-05-26T14:20:22.151Z,9.13
2019-05-26T14:22:51.850Z,5.60
2019-05-26T14:25:20.579Z,7.43
2019-05-26T14:27:49.256Z,6.77
2019-05-26T14:30:21.377Z,6.43
2019-05-26T14:32:51.138Z,8.87
2019-05-26T14:35:20.621Z,8.27
2019-05-26T14:37:50.126Z,3.63
2019-05-26T14:40:19.221Z,6.30
2019-05-26T14:42:48.722Z,3.80
2019-05-26T14:45:17.831Z,8.10
2019-05-26T14:47:46.546Z,6.43
2019-05-26T14:50:16.012Z,8.17
2019-05-26T14:52:44.705Z,7.40
2019-05-26T14:55:14.267Z,8.60
2019-05-26T14:57:43.179Z,5.80
2019-05-26T15:00:12.799Z,8.53
2019-05-26T15:02:41.543Z,8.97
2019-05-26T15:05:10.512Z,11.07
2019-05-26T15:07:39.268Z,4.40
2019-05-26T15:10:11.706Z,4.30
2019-05-26T15:12:40.388Z,7.27
2019-05-26T15:15:10.643Z,6.23
2019-05-26T15:17:39.388Z,5.60
2019-05-26T15:20:09.278Z,3.57
2019-05-26T15:22:38.774Z,4.23
2019-05-26T15:25:08.527Z,4.63
2019-05-26T15:27:36.995Z,9.07
2019-05-26T15:30:06.889Z,6.40
2019-05-26T15:32:36.853Z,7.03
2019-05-26T15:35:07.858Z,6.00
2019-05-26T15:37:36.910Z,4.90
2019-05-26T15:40:08.201Z,6.73
2019-05-26T15:42:37.746Z,5.00
2019-05-26T15:45:07.994Z,5.27
2019-05-26T15:47:36.815Z,4.70
2019-05-26T15:50:07.831Z,6.90
2019-05-26T15:52:43.517Z,4.10
2019-05-26T15:55:12.996Z,5.40
2019-05-26T15:57:41.736Z,6.70
2019-05-26T16:00:10.853Z,3.20
2019-05-26T16:02:39.857Z,3.37
2019-05-26T16:05:08.973Z,6.50
2019-05-26T16:07:37.744Z,6.77
2019-05-26T16:10:09.691Z,5.63
2019-05-26T16:12:38.332Z,11.07
2019-05-26T16:15:10.716Z,4.47
2019-05-26T16:17:40.026Z,5.23
2019-05-26T16:20:09.650Z,5.30
2019-05-26T16:22:38.761Z,4.47
2019-05-26T16:25:08.304Z,5.40
2019-05-26T16:27:36.983Z,7.13
2019-05-26T16:30:09.440Z,6.77
2019-05-26T16:32:38.352Z,6.07
2019-05-26T16:35:07.898Z,6.87
2019-05-26T16:37:36.709Z,6.10
2019-05-26T16:40:06.442Z,4.20
2019-05-26T16:42:35.202Z,6.60
2019-05-26T16:45:05.161Z,3.37
2019-05-26T16:47:33.962Z,7.97
2019-05-26T16:50:02.566Z,7.13
2019-05-26T16:52:31.391Z,5.80
2019-05-26T16:54:59.908Z,5.20
2019-05-26T16:57:29.412Z,8.73
2019-05-26T16:59:59.743Z,4.67
2019-05-26T17:02:28.416Z,6.37
2019-05-26T17:05:07.328Z,4.40
2019-05-26T17:07:36.015Z,7.03
2019-05-26T17:10:08.850Z,6.43
2019-05-26T17:12:39.557Z,2.60
2019-05-26T17:15:09.844Z,6.17
2019-05-26T17:17:39.344Z,5.43
2019-05-26T17:20:09.735Z,4.67
2019-05-26T17:22:38.378Z,5.23
2019-05-26T17:25:07.929Z,7.30
2019-05-26T17:27:36.499Z,6.77
2019-05-26T17:30:08.509Z,3.97
2019-05-26T17:32:37.229Z,5.60
2019-05-26T17:35:07.175Z,5.33
2019-05-26T17:37:36.407Z,4.23
2019-05-26T17:40:07.321Z,5.10
2019-05-26T17:42:35.828Z,5.63
2019-05-26T17:45:06.741Z,7.10
2019-05-26T17:47:36.324Z,4.07
2019-05-26T17:50:09.552Z,7.43
2019-05-26T17:52:38.753Z,4.23
2019-05-26T17:55:09.729Z,4.63
2019-05-26T17:57:39.253Z,3.77
2019-05-26T18:00:13.991Z,3.00
2019-05-26T18:02:42.719Z,4.57
2019-05-26T18:05:12.666Z,10.93
2019-05-26T18:07:41.483Z,6.17
2019-05-26T18:10:10.880Z,10.43
2019-05-26T18:12:39.610Z,4.23
2019-05-26T18:15:09.450Z,12.10
2019-05-26T18:17:47.051Z,7.27
2019-05-26T18:20:10.168Z,6.30
2019-05-26T18:22:38.798Z,7.13
2019-05-26T18:25:08.297Z,6.20
2019-05-26T18:27:37.192Z,6.97
2019-05-26T18:30:10.199Z,8.13
2019-05-26T18:32:38.880Z,4.70
2019-05-26T18:35:08.454Z,7.80
2019-05-26T18:37:37.689Z,11.93
2019-05-26T18:40:09.777Z,7.33
2019-05-26T18:42:38.576Z,15.50
2019-05-26T18:45:11.335Z,8.13
2019-05-26T18:47:39.857Z,8.40
2019-05-26T18:50:10.709Z,8.17
2019-05-26T18:52:39.470Z,6.93
2019-05-26T18:55:09.006Z,6.33
2019-05-26T18:57:38.862Z,10.40
2019-05-26T19:00:08.356Z,8.53
2019-05-26T19:02:37.008Z,9.00
2019-05-26T19:05:07.025Z,12.20
2019-05-26T19:07:36.543Z,8.33
2019-05-26T19:10:07.200Z,9.57
2019-05-26T19:12:36.044Z,11.00
2019-05-26T19:15:08.236Z,8.20
2019-05-26T19:17:36.828Z,8.93
2019-05-26T19:20:16.115Z,6.03
2019-05-26T19:22:37.690Z,7.87
2019-05-26T19:25:07.499Z,7.33
2019-05-26T19:27:36.220Z,6.90
2019-05-26T19:30:08.153Z,8.60
2019-05-26T19:32:36.680Z,7.00
2019-05-26T19:35:07.595Z,7.23
2019-05-26T19:37:36.260Z,12.60
2019-05-26T19:40:07.836Z,11.60
2019-05-26T19:42:36.513Z,7.63
2019-05-26T19:45:07.966Z,13.20
2019-05-26T19:47:36.564Z,9.30
2019-05-26T19:50:09.063Z,13.03
2019-05-26T19:52:37.837Z,9.30
2019-05-26T19:55:09.529Z,15.63
2019-05-26T19:57:40.063Z,15.93
2019-05-26T20:00:16.082Z,11.93
2019-05-26T20:02:47.399Z,12.50
2019-05-26T20:05:17.576Z,11.90
2019-05-26T20:07:46.235Z,8.30
2019-05-26T20:10:15.799Z,9.60
2019-05-26T20:12:45.715Z,9.03
2019-05-26T20:15:15.236Z,9.83
2019-05-26T20:17:44.264Z,11.63
2019-05-26T20:20:14.221Z,7.63
2019-05-26T20:22:42.971Z,8.13
2019-05-26T20:25:13.118Z,10.40
2019-05-26T20:27:42.133Z,14.10
2019-05-26T20:30:12.189Z,10.13
2019-05-26T20:32:40.999Z,7.17
2019-05-26T20:35:10.454Z,14.47
2019-05-26T20:37:39.560Z,7.60
2019-05-26T20:40:12.330Z,8.83
2019-05-26T20:42:41.052Z,9.60
2019-05-26T20:45:11.375Z,9.03
2019-05-26T20:47:39.981Z,8.80
2019-05-26T20:50:09.571Z,8.20
2019-05-26T20:52:38.679Z,7.77
2019-05-26T20:55:08.140Z,8.77
2019-05-26T20:57:36.819Z,10.33
2019-05-26T21:00:09.153Z,9.10
2019-05-26T21:02:39.901Z,11.60
2019-05-26T21:05:09.467Z,12.70
2019-05-26T21:07:38.214Z,10.43
2019-05-26T21:10:08.024Z,12.10
2019-05-26T21:12:36.701Z,19.63
2019-05-26T21:15:07.492Z,16.47
2019-05-26T21:17:37.895Z,11.27
2019-05-26T21:20:08.089Z,11.13
2019-05-26T21:22:36.832Z,14.50
2019-05-26T21:25:06.291Z,8.53
2019-05-26T21:27:34.969Z,12.47
2019-05-26T21:30:06.130Z,8.63
2019-05-26T21:32:34.808Z,11.90
2019-05-26T21:35:04.235Z,10.53
2019-05-26T21:37:32.989Z,10.67
2019-05-26T21:40:01.856Z,13.13
2019-05-26T21:42:30.448Z,12.57
2019-05-26T21:45:00.481Z,16.07
2019-05-26T21:47:28.968Z,9.67
2019-05-26T21:49:57.528Z,10.97
2019-05-26T21:52:26.263Z,12.87
2019-05-26T21:54:54.817Z,14.10
2019-05-26T21:57:23.690Z,13.53
2019-05-26T21:59:52.197Z,13.90
2019-05-26T22:02:26.404Z,9.80
2019-05-26T22:04:55.109Z,15.33
2019-05-26T22:07:23.830Z,11.57
2019-05-26T22:09:52.870Z,16.60
2019-05-26T22:12:21.556Z,13.43
2019-05-26T22:14:50.337Z,12.43
2019-05-26T22:17:19.366Z,10.70
2019-05-26T22:19:48.868Z,11.00
2019-05-26T22:22:17.602Z,13.33
2019-05-26T22:24:47.475Z,14.73
2019-05-26T22:27:16.979Z,10.37
2019-05-26T22:29:45.581Z,11.03
2019-05-26T22:32:16.399Z,10.93
2019-05-26T22:34:45.081Z,11.07
2019-05-26T22:37:15.869Z,12.50
2019-05-26T22:39:44.477Z,9.80
2019-05-26T22:42:16.029Z,15.53
2019-05-26T22:44:47.208Z,12.43
2019-05-26T22:47:16.810Z,8.87
2019-05-26T22:49:45.299Z,12.13
2019-05-26T22:52:17.795Z,10.27
2019-05-26T22:54:52.570Z,14.17
2019-05-26T22:57:21.322Z,10.00
2019-05-26T22:59:50.101Z,13.73
2019-05-26T23:02:19.901Z,7.40
2019-05-26T23:04:48.500Z,13.53
2019-05-26T23:07:17.220Z,9.20
2019-05-26T23:09:45.935Z,12.30
2019-05-26T23:12:14.535Z,9.23
2019-05-26T23:14:43.075Z,10.33
2019-05-26T23:17:11.544Z,9.83
2019-05-26T23:19:40.083Z,7.70
2019-05-26T23:22:08.739Z,11.50
2019-05-26T23:24:37.207Z,10.30
2019-05-26T23:27:06.340Z,13.40
2019-05-26T23:29:34.986Z,9.10
2019-05-26T23:32:03.764Z,11.30
2019-05-26T23:34:32.360Z,9.03
2019-05-26T23:37:01.121Z,8.77
2019-05-26T23:39:29.745Z,9.47
2019-05-26T23:41:58.472Z,11.97
2019-05-26T23:44:32.859Z,13.63
2019-05-26T23:47:01.551Z,12.37
2019-05-26T23:49:30.054Z,11.17
2019-05-26T23:51:58.514Z,13.37
2019-05-26T23:54:27.191Z,15.80
2019-05-26T23:56:56.216Z,10.60
2019-05-26T23:59:25.777Z,12.50
